Time;durP1;ratioP1;P1;durP2;ratioP2;P2;SDS_P1;SDS_P2;PMS_P1;PMS_P2;Temp;Humidity;BMP_temperature;BMP_pressure;BME280_temperature;BME280_humidity;BME280_pressure;Samples;Min_cycle;Max_cycle;Signal;HPM_P1;HPM_P2
2024/04/17 00:01:29;;;;;;;6.88;2.47;;;7.70;99.90;;;;;;5416983;26;19995;-60
2024/04/17 00:03:56;;;;;;;9.05;2.25;;;7.70;99.90;;;;;;5416958;26;19999;-60
2024/04/17 00:06:23;;;;;;;6.57;2.38;;;7.60;99.90;;;;;;5427785;26;20018;-60
2024/04/17 00:08:50;;;;;;;5.90;2.33;;;7.60;99.90;;;;;;5453033;26;20063;-60
2024/04/17 00:11:17;;;;;;;7.70;2.35;;;7.50;99.90;;;;;;5452821;26;20010;-60
2024/04/17 00:13:44;;;;;;;6.25;2.40;;;7.50;99.90;;;;;;5452287;26;20007;-61
2024/04/17 00:16:11;;;;;;;6.20;2.20;;;7.50;99.90;;;;;;5453042;26;20440;-62
2024/04/17 00:18:38;;;;;;;6.57;2.08;;;7.40;99.90;;;;;;5452748;26;20010;-62
2024/04/17 00:21:05;;;;;;;6.90;2.30;;;7.40;99.90;;;;;;5452686;26;19999;-62
2024/04/17 00:23:32;;;;;;;7.03;2.30;;;7.40;99.90;;;;;;5452700;26;20015;-62
2024/04/17 00:25:59;;;;;;;6.05;1.80;;;7.40;99.90;;;;;;5452603;26;19999;-62
2024/04/17 00:28:26;;;;;;;9.40;2.08;;;7.30;99.90;;;;;;5451005;26;20017;-62
2024/04/17 00:30:53;;;;;;;8.93;2.00;;;7.30;99.90;;;;;;5452692;26;20006;-62
2024/04/17 00:33:19;;;;;;;9.95;2.10;;;7.20;99.90;;;;;;5451578;26;20072;-62
2024/04/17 00:35:47;;;;;;;8.82;2.03;;;7.10;99.90;;;;;;5452307;26;20003;-62
2024/04/17 00:38:13;;;;;;;6.85;2.10;;;7.10;99.90;;;;;;5449275;26;20320;-62
2024/04/17 00:40:40;;;;;;;7.28;1.65;;;7.00;99.90;;;;;;5466072;26;20007;-63
2024/04/17 00:43:07;;;;;;;5.28;2.00;;;7.00;99.90;;;;;;5460984;26;20063;-62
2024/04/17 00:45:34;;;;;;;7.97;2.13;;;7.00;99.90;;;;;;5482284;26;20018;-63
2024/04/17 00:48:01;;;;;;;7.50;2.35;;;6.90;99.90;;;;;;5492325;26;20002;-63
2024/04/17 00:50:28;;;;;;;5.80;2.35;;;6.90;99.90;;;;;;5457273;26;20463;-63
2024/04/17 00:52:55;;;;;;;4.60;1.73;;;6.80;99.90;;;;;;5454055;26;20076;-63
2024/04/17 00:55:22;;;;;;;5.93;2.03;;;6.80;99.90;;;;;;5466851;26;20014;-63
2024/04/17 00:57:49;;;;;;;4.82;1.85;;;6.70;99.90;;;;;;5455742;26;20014;-63
2024/04/17 01:00:16;;;;;;;4.70;2.08;;;6.70;99.90;;;;;;5455888;26;20031;-62
2024/04/17 01:02:42;;;;;;;8.18;2.80;;;6.60;99.90;;;;;;5453726;26;20418;-63
2024/04/17 01:05:09;;;;;;;7.70;2.05;;;6.60;99.90;;;;;;5455877;26;20031;-62
2024/04/17 01:07:37;;;;;;;5.53;2.33;;;6.50;99.90;;;;;;5455710;26;20003;-63
2024/04/17 01:10:04;;;;;;;6.32;1.90;;;6.50;99.90;;;;;;5455975;26;20007;-62
2024/04/17 01:12:31;;;;;;;6.45;2.40;;;6.50;99.90;;;;;;5455507;26;20003;-62
2024/04/17 01:14:57;;;;;;;6.55;2.47;;;6.40;99.90;;;;;;5455545;26;19999;-63
2024/04/17 01:17:24;;;;;;;6.47;2.53;;;6.40;99.90;;;;;;5454960;26;20325;-63
2024/04/17 01:19:51;;;;;;;9.35;2.72;;;6.30;99.90;;;;;;5455626;26;20003;-63
2024/04/17 01:22:18;;;;;;;7.15;2.58;;;6.30;99.90;;;;;;5455475;26;20010;-62
2024/04/17 01:24:45;;;;;;;7.07;2.75;;;6.30;99.90;;;;;;5455524;26;20034;-62
2024/04/17 01:27:12;;;;;;;9.90;3.10;;;6.20;99.90;;;;;;5455540;26;20011;-63
2024/04/17 01:29:39;;;;;;;8.98;3.58;;;6.20;99.90;;;;;;5455467;26;20332;-62
2024/04/17 01:32:06;;;;;;;5.50;3.78;;;6.20;99.90;;;;;;5454312;26;20003;-62
2024/04/17 01:34:33;;;;;;;8.07;4.07;;;6.10;99.90;;;;;;5455261;26;20046;-62
2024/04/17 01:37:00;;;;;;;5.95;3.45;;;6.20;99.90;;;;;;5453498;26;20076;-62
2024/04/17 01:39:27;;;;;;;7.03;3.63;;;6.10;99.90;;;;;;5455302;26;19999;-63
2024/04/17 01:41:54;;;;;;;5.20;3.28;;;6.10;99.90;;;;;;5455165;26;20039;-62
2024/04/17 01:44:22;;;;;;;7.72;4.32;;;6.10;99.90;;;;;;5455109;26;19995;-63
2024/04/17 01:46:56;;;;;;;9.07;4.35;;;6.10;99.90;;;;;;5455104;26;20346;-62
2024/04/17 01:49:23;;;;;;;6.07;3.25;;;6.00;99.90;;;;;;5455112;26;20017;-62
2024/04/17 01:51:50;;;;;;;6.43;3.80;;;6.00;99.90;;;;;;5454357;26;20007;-62
2024/04/17 01:54:16;;;;;;;7.55;4.03;;;6.00;99.90;;;;;;5455123;26;20003;-62
2024/04/17 01:56:43;;;;;;;7.65;4.63;;;5.90;99.90;;;;;;5453530;26;20076;-62
2024/04/17 01:59:10;;;;;;;8.43;4.32;;;5.90;99.90;;;;;;5454981;26;20010;-62
2024/04/17 02:01:37;;;;;;;6.50;4.78;;;5.90;99.90;;;;;;5446416;26;20344;-62
2024/04/17 02:04:04;;;;;;;6.72;4.72;;;5.90;99.90;;;;;;5419060;26;20027;-61
2024/04/17 02:06:31;;;;;;;6.60;4.60;;;5.90;99.90;;;;;;5418857;26;20026;-60
2024/04/17 02:08:58;;;;;;;6.47;4.90;;;5.90;99.90;;;;;;5418840;26;20072;-60
2024/04/17 02:11:25;;;;;;;8.40;5.35;;;5.80;99.90;;;;;;5417051;26;20085;-60
2024/04/17 02:13:52;;;;;;;9.20;5.40;;;5.80;99.90;;;;;;5418696;26;20028;-60
2024/04/17 02:16:19;;;;;;;8.63;5.63;;;5.90;99.90;;;;;;5417872;26;20000;-61
2024/04/17 02:18:46;;;;;;;9.35;5.03;;;5.80;99.90;;;;;;5418691;26;20004;-60
2024/04/17 02:21:13;;;;;;;8.50;5.25;;;5.80;99.90;;;;;;5417033;26;20463;-60
2024/04/17 02:23:40;;;;;;;8.13;5.60;;;5.80;99.90;;;;;;5418159;26;20000;-60
2024/04/17 02:26:06;;;;;;;8.68;5.18;;;5.80;99.90;;;;;;5418607;26;20007;-60
2024/04/17 02:28:33;;;;;;;7.20;4.93;;;5.80;99.90;;;;;;5418541;26;20014;-60
2024/04/17 02:31:00;;;;;;;7.43;4.53;;;5.80;99.90;;;;;;5418594;26;20015;-60
2024/04/17 02:33:27;;;;;;;6.65;4.53;;;5.80;99.90;;;;;;5418445;26;20035;-60
2024/04/17 02:35:54;;;;;;;7.22;4.00;;;5.80;99.90;;;;;;5418463;26;20018;-60
2024/04/17 02:38:21;;;;;;;7.10;4.00;;;5.80;99.90;;;;;;5417519;26;20406;-60
2024/04/17 02:40:48;;;;;;;5.78;4.13;;;5.80;99.90;;;;;;5418500;26;20376;-60
2024/04/17 02:43:15;;;;;;;6.15;3.88;;;5.80;99.90;;;;;;5418314;26;20000;-60
2024/04/17 02:45:41;;;;;;;7.55;3.53;;;5.80;99.90;;;;;;5418229;26;20022;-61
2024/04/17 02:48:08;;;;;;;6.25;3.30;;;5.80;99.90;;;;;;5417646;26;20370;-60
2024/04/17 02:50:35;;;;;;;5.05;3.63;;;5.80;99.90;;;;;;5418106;26;20004;-60
2024/04/17 02:53:02;;;;;;;5.22;3.70;;;5.70;99.90;;;;;;5418324;26;20011;-60
2024/04/17 02:55:29;;;;;;;7.88;3.38;;;5.70;99.90;;;;;;5418121;26;20010;-60
2024/04/17 02:57:56;;;;;;;7.18;3.65;;;5.70;99.90;;;;;;5418134;26;20011;-60
2024/04/17 03:00:23;;;;;;;6.30;3.10;;;5.60;99.90;;;;;;5418228;26;20448;-60
2024/04/17 03:02:50;;;;;;;6.38;3.17;;;5.60;99.90;;;;;;5416807;26;20019;-60
2024/04/17 03:05:17;;;;;;;4.95;3.00;;;5.60;99.90;;;;;;5418335;26;20014;-61
2024/04/17 03:07:47;;;;;;;5.85;2.72;;;5.60;99.90;;;;;;5418009;26;20452;-61
2024/04/17 03:10:14;;;;;;;5.82;3.30;;;5.60;99.90;;;;;;5417295;26;20003;-61
2024/04/17 03:12:41;;;;;;;9.05;3.45;;;5.60;99.90;;;;;;5418035;26;20014;-61
2024/04/17 03:15:11;;;;;;;6.38;3.42;;;5.60;99.90;;;;;;5416068;26;20018;-61
2024/04/17 03:17:39;;;;;;;8.88;3.28;;;5.50;99.90;;;;;;5418004;26;20010;-61
2024/04/17 03:20:06;;;;;;;9.40;3.30;;;5.50;99.90;;;;;;5417904;26;20007;-61
2024/04/17 03:22:33;;;;;;;8.32;3.25;;;5.50;99.90;;;;;;5416938;26;20007;-61
2024/04/17 03:24:59;;;;;;;5.50;3.05;;;5.50;99.90;;;;;;5415928;26;20018;-61
2024/04/17 03:27:26;;;;;;;6.80;2.95;;;5.40;99.90;;;;;;5417652;26;20066;-61
2024/04/17 03:29:53;;;;;;;7.35;3.22;;;5.40;99.90;;;;;;5417088;26;20081;-61
2024/04/17 03:32:20;;;;;;;5.90;3.08;;;5.40;99.90;;;;;;5417470;26;20015;-61
2024/04/17 03:34:47;;;;;;;6.35;2.67;;;5.40;99.90;;;;;;5417658;26;20015;-60
2024/04/17 03:37:14;;;;;;;5.78;3.30;;;5.40;99.90;;;;;;5417530;26;20451;-61
2024/04/17 03:39:41;;;;;;;7.25;3.13;;;5.40;99.90;;;;;;5416934;26;20015;-60
2024/04/17 03:42:08;;;;;;;6.45;2.55;;;5.40;99.90;;;;;;5417417;26;20018;-61
2024/04/17 03:44:35;;;;;;;5.72;3.03;;;5.30;99.90;;;;;;5417376;26;20007;-61
2024/04/17 03:47:02;;;;;;;6.60;3.10;;;5.40;99.90;;;;;;5417274;26;20019;-61
2024/04/17 03:49:29;;;;;;;7.93;3.47;;;5.40;99.90;;;;;;5417348;26;20005;-61
2024/04/17 03:51:55;;;;;;;6.35;2.83;;;5.40;99.90;;;;;;5416438;26;20005;-61
2024/04/17 03:54:22;;;;;;;6.15;2.78;;;5.40;99.90;;;;;;5417222;26;20004;-61
2024/04/17 03:56:49;;;;;;;4.15;2.83;;;5.40;99.90;;;;;;5417121;26;19999;-61
2024/04/17 03:59:16;;;;;;;5.18;2.88;;;5.40;99.90;;;;;;5416435;26;19999;-61
2024/04/17 04:01:43;;;;;;;9.02;3.10;;;5.40;99.90;;;;;;5417151;26;20008;-61
2024/04/17 04:04:10;;;;;;;9.60;2.95;;;5.40;99.90;;;;;;5417067;26;20004;-61
2024/04/17 04:06:37;;;;;;;7.43;2.85;;;5.40;99.90;;;;;;5416923;26;20529;-61
2024/04/17 04:09:03;;;;;;;8.02;2.80;;;5.40;99.90;;;;;;5416334;26;20084;-61
2024/04/17 04:11:30;;;;;;;7.60;2.92;;;5.40;99.90;;;;;;5417063;26;20014;-61
2024/04/17 04:13:57;;;;;;;8.68;2.67;;;5.40;99.90;;;;;;5417432;26;20022;-61
2024/04/17 04:16:26;;;;;;;5.72;2.60;;;5.50;99.90;;;;;;5420517;26;20010;-61
2024/04/17 04:18:53;;;;;;;7.18;3.13;;;5.50;99.90;;;;;;5420547;26;20019;-61
2024/04/17 04:21:19;;;;;;;7.80;3.00;;;5.50;99.90;;;;;;5420377;26;20015;-61
2024/04/17 04:23:46;;;;;;;4.55;2.30;;;5.50;99.90;;;;;;5420454;26;20008;-61
2024/04/17 04:26:13;;;;;;;5.40;2.45;;;5.60;99.90;;;;;;5419545;26;20110;-61
2024/04/17 04:28:40;;;;;;;8.68;3.28;;;5.60;99.90;;;;;;5454648;26;20007;-61
2024/04/17 04:31:07;;;;;;;12.07;5.15;;;5.60;99.90;;;;;;5455313;26;20007;-61
2024/04/17 04:33:34;;;;;;;4.75;2.50;;;5.60;99.90;;;;;;5456151;26;20006;-61
2024/04/17 04:36:01;;;;;;;4.78;2.30;;;5.60;99.90;;;;;;5456055;26;20011;-60
2024/04/17 04:38:28;;;;;;;7.32;2.65;;;5.60;99.90;;;;;;5456102;26;20455;-61
2024/04/17 04:40:55;;;;;;;9.07;3.25;;;5.60;99.90;;;;;;5454419;26;20003;-61
2024/04/17 04:43:21;;;;;;;6.70;2.15;;;5.60;99.90;;;;;;5456076;26;20019;-61
2024/04/17 04:45:48;;;;;;;7.85;2.50;;;5.70;99.90;;;;;;5456126;26;20412;-61
2024/04/17 04:48:15;;;;;;;6.63;2.33;;;5.60;99.90;;;;;;5456021;26;20059;-61
2024/04/17 04:50:42;;;;;;;6.72;2.45;;;5.60;99.90;;;;;;5456121;26;20007;-61
2024/04/17 04:53:09;;;;;;;5.70;1.92;;;5.60;99.90;;;;;;5455943;26;20079;-61
2024/04/17 04:55:36;;;;;;;7.15;2.55;;;5.60;99.90;;;;;;5455747;26;20009;-61
2024/04/17 04:58:03;;;;;;;6.22;2.55;;;5.60;99.90;;;;;;5455103;26;20470;-61
2024/04/17 05:00:30;;;;;;;5.68;2.17;;;5.60;99.90;;;;;;5455842;26;20017;-61
2024/04/17 05:02:57;;;;;;;4.53;1.80;;;5.70;99.90;;;;;;5455904;26;20018;-61
2024/04/17 05:05:24;;;;;;;11.43;2.42;;;5.70;99.90;;;;;;5455839;26;20003;-61
2024/04/17 05:07:50;;;;;;;5.32;2.00;;;5.60;99.90;;;;;;5455895;26;20072;-61
2024/04/17 05:10:17;;;;;;;9.90;2.90;;;5.60;99.90;;;;;;5455352;26;20082;-61
2024/04/17 05:12:44;;;;;;;6.93;2.05;;;5.70;99.90;;;;;;5455484;26;20006;-61
2024/04/17 05:15:11;;;;;;;8.20;1.98;;;5.70;99.90;;;;;;5455731;26;20039;-61
2024/04/17 05:17:38;;;;;;;7.30;1.92;;;5.70;99.90;;;;;;5455530;26;20030;-61
2024/04/17 05:20:05;;;;;;;9.27;2.22;;;5.60;99.90;;;;;;5454719;26;20003;-62
2024/04/17 05:22:32;;;;;;;8.90;2.47;;;5.60;99.90;;;;;;5455574;26;20014;-61
2024/04/17 05:24:59;;;;;;;7.88;1.70;;;5.60;99.90;;;;;;5455296;26;20014;-61
2024/04/17 05:27:26;;;;;;;8.55;1.52;;;5.50;99.90;;;;;;5454390;26;20003;-61
2024/04/17 05:29:53;;;;;;;11.60;1.85;;;5.50;99.90;;;;;;5455441;26;20039;-61
2024/04/17 05:32:20;;;;;;;7.85;2.20;;;5.50;99.90;;;;;;5455251;26;20010;-61
2024/04/17 05:34:46;;;;;;;8.90;1.83;;;5.50;99.90;;;;;;5453432;26;20007;-62
2024/04/17 05:37:13;;;;;;;6.32;2.10;;;5.50;99.90;;;;;;5455123;26;20030;-61
2024/04/17 05:39:40;;;;;;;5.68;1.83;;;5.40;99.90;;;;;;5455190;26;20015;-60
2024/04/17 05:42:07;;;;;;;5.43;1.77;;;5.40;99.90;;;;;;5455227;26;20042;-60
2024/04/17 05:44:34;;;;;;;4.05;1.70;;;5.40;99.90;;;;;;5427918;26;20015;-60
2024/04/17 05:47:01;;;;;;;5.15;1.65;;;5.40;99.90;;;;;;5419196;26;20007;-60
2024/04/17 05:49:28;;;;;;;8.05;2.00;;;5.40;99.90;;;;;;5419598;26;20007;-61
2024/04/17 05:51:55;;;;;;;8.38;1.70;;;5.40;99.90;;;;;;5419222;26;20008;-60
2024/04/17 05:54:22;;;;;;;10.13;2.08;;;5.40;99.90;;;;;;5419039;26;20011;-60
2024/04/17 05:56:50;;;;;;;7.68;2.05;;;5.40;99.90;;;;;;5418988;26;20015;-60
2024/04/17 05:59:16;;;;;;;4.93;1.77;;;5.40;99.90;;;;;;5418534;26;20008;-60
2024/04/17 06:01:43;;;;;;;6.07;1.80;;;5.40;99.90;;;;;;5418955;26;19999;-60
2024/04/17 06:04:10;;;;;;;7.05;1.55;;;5.40;99.90;;;;;;5418807;26;20003;-60
2024/04/17 06:06:37;;;;;;;8.00;1.77;;;5.50;99.90;;;;;;5418934;26;20041;-60
2024/04/17 06:09:04;;;;;;;4.68;1.85;;;5.50;99.90;;;;;;5418745;26;20043;-60
2024/04/17 06:11:31;;;;;;;7.45;2.00;;;5.50;99.90;;;;;;5418792;26;20072;-60
2024/04/17 06:13:58;;;;;;;5.60;1.75;;;5.60;99.90;;;;;;5422689;26;20472;-66
2024/04/17 06:16:25;;;;;;;5.38;1.70;;;5.70;99.90;;;;;;5454248;26;20007;-66
2024/04/17 06:18:52;;;;;;;6.20;1.50;;;5.70;99.90;;;;;;5454779;26;19998;-60
2024/04/17 06:21:19;;;;;;;6.13;1.83;;;5.80;99.90;;;;;;5439644;26;20015;-60
2024/04/17 06:23:46;;;;;;;6.60;2.00;;;5.80;99.90;;;;;;5418750;26;20344;-60
2024/04/17 06:26:13;;;;;;;8.00;1.70;;;6.00;99.90;;;;;;5418519;26;20003;-60
2024/04/17 06:28:40;;;;;;;9.25;2.00;;;6.00;99.90;;;;;;5421282;26;20062;-60
2024/04/17 06:31:07;;;;;;;8.15;2.28;;;6.10;99.90;;;;;;5416097;26;20017;-59
2024/04/17 06:33:33;;;;;;;6.68;1.50;;;6.10;99.90;;;;;;5416188;26;20036;-59
2024/04/17 06:36:01;;;;;;;6.30;2.00;;;6.30;99.90;;;;;;5416369;26;21306;-59
2024/04/17 06:38:28;;;;;;;7.60;1.98;;;6.30;99.90;;;;;;5415828;26;20032;-59
2024/04/17 06:40:55;;;;;;;7.00;1.80;;;6.40;99.90;;;;;;5418487;26;20479;-59
2024/04/17 06:43:23;;;;;;;7.72;1.80;;;6.50;99.90;;;;;;5418387;26;20349;-59
2024/04/17 06:45:49;;;;;;;6.35;1.70;;;6.50;99.90;;;;;;5418614;26;19996;-59
2024/04/17 06:48:16;;;;;;;8.48;1.92;;;6.40;99.90;;;;;;5418344;26;20473;-62
2024/04/17 06:50:46;;;;;;;9.57;1.92;;;6.40;99.90;;;;;;5418235;26;20336;-62
2024/04/17 06:53:13;;;;;;;8.95;2.00;;;6.30;99.90;;;;;;5417991;26;20460;-61
2024/04/17 06:55:40;;;;;;;5.80;2.00;;;6.30;99.90;;;;;;5417941;26;20018;-65
2024/04/17 06:58:07;;;;;;;7.57;2.25;;;6.30;99.90;;;;;;5418073;26;20536;-65
2024/04/17 07:00:34;;;;;;;8.60;2.08;;;6.30;99.90;;;;;;5417997;26;19999;-65
2024/04/17 07:03:01;;;;;;;5.82;2.05;;;6.30;99.90;;;;;;5418303;26;20015;-65
2024/04/17 07:05:31;;;;;;;8.10;2.58;;;6.30;99.90;;;;;;5417918;26;20076;-65
2024/04/17 07:07:58;;;;;;;5.10;1.90;;;6.30;99.90;;;;;;5418218;26;20019;-65
2024/04/17 07:10:25;;;;;;;8.45;2.22;;;6.30;99.90;;;;;;5416218;26;20004;-65
2024/04/17 07:12:52;;;;;;;6.57;1.60;;;6.40;99.90;;;;;;5418089;26;20014;-65
2024/04/17 07:15:19;;;;;;;7.72;2.00;;;6.50;99.90;;;;;;5417866;26;20000;-65
2024/04/17 07:17:46;;;;;;;7.63;1.52;;;6.50;99.90;;;;;;5417885;26;20040;-65
2024/04/17 07:20:15;;;;;;;9.75;1.55;;;6.60;99.90;;;;;;5417863;26;20076;-65
2024/04/17 07:22:42;;;;;;;6.50;1.70;;;6.60;99.90;;;;;;5418005;26;20410;-65
2024/04/17 07:25:10;;;;;;;7.93;1.77;;;6.80;99.90;;;;;;5416049;26;20011;-65
2024/04/17 07:27:41;;;;;;;5.53;1.90;;;6.90;99.90;;;;;;5417587;26;20081;-65
2024/04/17 07:30:07;;;;;;;6.57;1.50;;;7.00;99.90;;;;;;5417746;26;20076;-65
2024/04/17 07:32:34;;;;;;;7.30;1.73;;;7.00;99.90;;;;;;5417653;26;20028;-63
2024/04/17 07:35:01;;;;;;;9.60;2.10;;;7.10;99.90;;;;;;5415659;26;20353;-62
2024/04/17 07:37:30;;;;;;;6.00;2.08;;;7.20;99.90;;;;;;5417374;26;20004;-61
2024/04/17 07:39:57;;;;;;;7.03;1.85;;;7.30;99.90;;;;;;5415642;26;20012;-62
2024/04/17 07:42:24;;;;;;;8.30;2.35;;;7.20;99.90;;;;;;5417341;26;20011;-62
2024/04/17 07:44:50;;;;;;;7.43;1.63;;;7.30;99.90;;;;;;5417284;26;20007;-61
2024/04/17 07:47:17;;;;;;;5.90;1.50;;;7.40;99.90;;;;;;5415359;26;20356;-61
2024/04/17 07:49:44;;;;;;;6.20;1.50;;;7.40;99.90;;;;;;5419031;26;20000;-61
2024/04/17 07:52:12;;;;;;;4.80;1.35;;;7.40;99.90;;;;;;5420946;26;20007;-61
2024/04/17 07:54:38;;;;;;;6.70;1.20;;;7.50;99.90;;;;;;5420612;26;20003;-61
2024/04/17 07:57:05;;;;;;;8.05;3.35;;;7.70;99.90;;;;;;5420516;26;20016;-61
2024/04/17 07:59:32;;;;;;;5.35;1.40;;;7.70;99.90;;;;;;5420725;26;20003;-61
2024/04/17 08:01:59;;;;;;;7.50;1.58;;;7.80;99.90;;;;;;5420895;26;20003;-61
2024/04/17 08:04:26;;;;;;;4.70;1.30;;;7.80;99.90;;;;;;5420719;26;20050;-61
2024/04/17 08:06:53;;;;;;;5.90;1.75;;;7.80;99.90;;;;;;5420642;26;20018;-62
2024/04/17 08:09:20;;;;;;;4.32;1.30;;;7.90;99.90;;;;;;5420596;26;20031;-62
2024/04/17 08:11:47;;;;;;;5.20;1.38;;;7.80;99.90;;;;;;5420688;26;20449;-62
2024/04/17 08:14:14;;;;;;;5.35;1.30;;;7.70;99.90;;;;;;5420399;26;20014;-62
2024/04/17 08:16:40;;;;;;;9.05;1.67;;;7.80;99.90;;;;;;5420264;26;20003;-63
2024/04/17 08:19:12;;;;;;;8.38;1.23;;;7.80;99.90;;;;;;5420636;26;20338;-62
2024/04/17 08:21:39;;;;;;;7.03;1.30;;;7.80;99.90;;;;;;5418405;26;20004;-62
2024/04/17 08:24:06;;;;;;;8.55;1.67;;;7.70;99.90;;;;;;5420213;26;19999;-61
2024/04/17 08:26:33;;;;;;;5.43;1.35;;;7.80;99.90;;;;;;5420279;26;20007;-62
2024/04/17 08:29:00;;;;;;;6.47;1.50;;;7.90;99.90;;;;;;5420260;26;20018;-63
2024/04/17 08:31:27;;;;;;;5.55;1.25;;;8.00;99.90;;;;;;5420189;26;20080;-62
2024/04/17 08:33:54;;;;;;;9.15;1.30;;;8.10;99.90;;;;;;5420141;26;20358;-61
2024/04/17 08:36:21;;;;;;;10.05;1.50;;;8.10;99.90;;;;;;5420178;26;20003;-61
2024/04/17 08:38:48;;;;;;;6.72;1.25;;;8.20;99.90;;;;;;5420073;26;20079;-62
2024/04/17 08:41:15;;;;;;;8.20;1.38;;;8.00;99.90;;;;;;5419922;26;20517;-62
2024/04/17 08:43:42;;;;;;;7.10;1.52;;;8.10;99.90;;;;;;5420140;26;19996;-62
2024/04/17 08:46:09;;;;;;;7.68;1.30;;;8.10;99.90;;;;;;5419920;26;20453;-62
2024/04/17 08:48:36;;;;;;;8.02;1.90;;;8.10;99.90;;;;;;5418276;26;20076;-63
2024/04/17 08:51:03;;;;;;;4.68;1.33;;;8.20;99.90;;;;;;5420120;26;20015;-62
2024/04/17 08:53:30;;;;;;;4.50;1.55;;;8.20;99.90;;;;;;5420167;26;20471;-63
2024/04/17 08:55:56;;;;;;;6.68;1.48;;;8.40;99.90;;;;;;5419888;26;20015;-63
2024/04/17 08:58:23;;;;;;;8.25;1.83;;;8.30;99.90;;;;;;5418212;26;20318;-63
2024/04/17 09:00:50;;;;;;;5.38;1.52;;;8.40;99.90;;;;;;5418673;26;20014;-63
2024/04/17 09:03:18;;;;;;;6.97;1.60;;;8.50;99.90;;;;;;5420197;26;20003;-64
2024/04/17 09:05:44;;;;;;;5.40;1.20;;;8.40;99.90;;;;;;5419769;26;20121;-63
2024/04/17 09:08:11;;;;;;;7.53;1.50;;;8.40;99.90;;;;;;5420063;26;19999;-64
2024/04/17 09:10:38;;;;;;;7.25;2.28;;;8.40;99.90;;;;;;5417996;26;20341;-63
2024/04/17 09:13:05;;;;;;;6.95;1.40;;;8.30;99.90;;;;;;5419901;26;20007;-63
2024/04/17 09:15:32;;;;;;;6.57;1.60;;;8.40;99.90;;;;;;5419645;26;20180;-64
2024/04/17 09:17:59;;;;;;;8.02;1.67;;;8.50;99.90;;;;;;5419714;26;20377;-64
2024/04/17 09:20:26;;;;;;;6.22;1.60;;;8.50;99.90;;;;;;5419738;26;20014;-62
2024/04/17 09:22:53;;;;;;;6.38;1.42;;;8.50;99.90;;;;;;5419495;26;20003;-62
2024/04/17 09:25:20;;;;;;;8.18;1.33;;;8.70;99.90;;;;;;5419147;26;20014;-62
2024/04/17 09:27:47;;;;;;;3.97;0.93;;;8.90;99.90;;;;;;5419096;26;20043;-63
2024/04/17 09:30:14;;;;;;;6.78;1.50;;;8.90;99.90;;;;;;5419165;26;20012;-63
2024/04/17 09:32:41;;;;;;;4.95;1.38;;;9.00;99.90;;;;;;5419455;26;20023;-63
2024/04/17 09:35:08;;;;;;;6.43;1.23;;;8.80;99.90;;;;;;5417762;26;20015;-63
2024/04/17 09:37:35;;;;;;;4.80;1.40;;;8.60;99.90;;;;;;5419312;26;20018;-63
2024/04/17 09:40:02;;;;;;;3.22;1.08;;;8.60;99.90;;;;;;5419339;26;20018;-62
2024/04/17 09:42:29;;;;;;;5.00;1.40;;;8.40;99.90;;;;;;5419359;26;20015;-62
2024/04/17 09:44:56;;;;;;;4.60;1.33;;;8.40;99.90;;;;;;5419496;26;20007;-64
2024/04/17 09:47:23;;;;;;;5.85;1.30;;;8.30;99.90;;;;;;5419168;26;20019;-60
2024/04/17 09:49:50;;;;;;;4.00;1.30;;;8.40;99.90;;;;;;5419301;26;20011;-60
2024/04/17 09:52:18;;;;;;;3.03;1.10;;;8.30;99.90;;;;;;5419205;26;20317;-58
2024/04/17 09:54:45;;;;;;;4.82;1.85;;;8.30;99.90;;;;;;5419105;26;20035;-59
2024/04/17 09:57:12;;;;;;;5.25;2.20;;;8.20;99.90;;;;;;5417270;26;20019;-59
2024/04/17 09:59:39;;;;;;;4.88;1.40;;;8.30;99.90;;;;;;5419123;26;20015;-60
2024/04/17 10:02:08;;;;;;;4.40;1.50;;;8.40;99.90;;;;;;5418893;26;20007;-59
2024/04/17 10:04:35;;;;;;;6.53;1.25;;;8.60;99.90;;;;;;5417209;26;20035;-60
2024/04/17 10:07:02;;;;;;;3.88;1.35;;;8.80;99.90;;;;;;5418907;26;20043;-59
2024/04/17 10:09:29;;;;;;;4.88;1.40;;;8.90;99.90;;;;;;5418957;26;20019;-62
2024/04/17 10:11:56;;;;;;;5.22;1.35;;;9.00;99.90;;;;;;5418387;26;20000;-62
2024/04/17 10:14:23;;;;;;;3.95;1.35;;;8.90;99.90;;;;;;5418708;26;20464;-62
2024/04/17 10:16:51;;;;;;;3.05;1.02;;;8.90;99.90;;;;;;5417157;26;20341;-61
2024/04/17 10:19:18;;;;;;;5.30;1.50;;;8.90;99.90;;;;;;5418814;26;20049;-62
2024/04/17 10:21:45;;;;;;;2.22;0.90;;;8.90;99.90;;;;;;5418707;26;20004;-63
2024/04/17 10:24:12;;;;;;;5.05;1.48;;;9.00;99.90;;;;;;5418576;26;20019;-63
2024/04/17 10:26:39;;;;;;;5.72;1.05;;;9.10;99.90;;;;;;5418442;26;20014;-63
2024/04/17 10:29:06;;;;;;;5.53;0.85;;;9.30;99.90;;;;;;5418400;26;20007;-63
2024/04/17 10:31:33;;;;;;;2.85;0.82;;;9.30;99.00;;;;;;5419015;26;20410;-63
2024/04/17 10:34:00;;;;;;;2.63;0.60;;;9.40;99.30;;;;;;5418397;26;20452;-64
2024/04/17 10:36:27;;;;;;;2.22;0.77;;;9.40;98.40;;;;;;5418291;26;20014;-64
2024/04/17 10:38:53;;;;;;;3.83;1.05;;;9.40;98.20;;;;;;5418299;26;20076;-63
2024/04/17 10:41:22;;;;;;;6.32;1.08;;;9.30;99.90;;;;;;5418341;26;20004;-62
2024/04/17 10:43:48;;;;;;;7.50;1.10;;;9.20;99.90;;;;;;5418534;26;20019;-62
2024/04/17 10:46:15;;;;;;;4.15;1.08;;;9.20;99.90;;;;;;5418148;26;20341;-62
2024/04/17 10:48:43;;;;;;;3.10;1.23;;;9.20;99.90;;;;;;5418295;26;20476;-62
2024/04/17 10:51:10;;;;;;;5.00;1.10;;;9.10;99.90;;;;;;5418416;26;20003;-62
2024/04/17 10:53:37;;;;;;;4.03;0.90;;;9.10;99.90;;;;;;5418151;26;20361;-63
2024/04/17 10:56:04;;;;;;;2.28;0.70;;;9.20;97.90;;;;;;5417996;26;20018;-64
2024/04/17 10:58:31;;;;;;;3.65;1.00;;;9.40;98.00;;;;;;5418229;26;20019;-62
2024/04/17 11:00:58;;;;;;;2.78;1.00;;;9.50;98.40;;;;;;5418192;26;20076;-62
2024/04/17 11:03:25;;;;;;;2.42;0.98;;;9.50;98.70;;;;;;5418308;26;20028;-62
2024/04/17 11:05:52;;;;;;;2.60;1.00;;;9.60;99.20;;;;;;5418047;26;20459;-62
2024/04/17 11:08:19;;;;;;;3.05;0.80;;;9.60;98.50;;;;;;5418264;26;20015;-62
2024/04/17 11:10:46;;;;;;;4.78;0.95;;;9.50;98.50;;;;;;5418196;26;20007;-63
2024/04/17 11:13:13;;;;;;;2.90;1.10;;;9.60;98.90;;;;;;5418219;26;20023;-63
2024/04/17 11:15:40;;;;;;;2.60;0.90;;;9.80;98.00;;;;;;5417897;26;20007;-63
2024/04/17 11:18:07;;;;;;;4.03;0.88;;;10.00;97.80;;;;;;5418174;26;20014;-61
2024/04/17 11:20:34;;;;;;;2.47;0.80;;;10.10;96.60;;;;;;5418015;26;20039;-61
2024/04/17 11:23:01;;;;;;;3.88;1.65;;;10.10;96.40;;;;;;5417718;26;20018;-61
2024/04/17 11:25:28;;;;;;;6.63;1.35;;;10.10;96.70;;;;;;5416889;26;20003;-63
2024/04/17 11:27:55;;;;;;;5.93;1.48;;;10.10;97.10;;;;;;5417548;26;20004;-61
2024/04/17 11:30:22;;;;;;;3.17;0.90;;;10.10;97.80;;;;;;5418044;26;20003;-61
2024/04/17 11:32:49;;;;;;;2.75;0.82;;;10.20;97.70;;;;;;5416038;26;20003;-62
2024/04/17 11:35:16;;;;;;;2.95;1.13;;;10.10;97.50;;;;;;5415782;26;20003;-62
2024/04/17 11:37:43;;;;;;;4.30;0.90;;;10.30;97.30;;;;;;5417692;26;20008;-61
2024/04/17 11:40:10;;;;;;;3.33;0.80;;;10.40;96.20;;;;;;5417478;26;20049;-62
2024/04/17 11:42:37;;;;;;;2.33;0.90;;;10.40;96.10;;;;;;5417523;26;20016;-62
2024/04/17 11:45:03;;;;;;;3.70;0.75;;;10.60;96.60;;;;;;5417472;26;20003;-62
2024/04/17 11:47:30;;;;;;;3.75;0.95;;;10.60;95.60;;;;;;5417599;26;20448;-62
2024/04/17 11:49:57;;;;;;;3.00;0.80;;;10.60;95.50;;;;;;5417378;26;20352;-62
2024/04/17 11:52:24;;;;;;;5.50;1.30;;;10.30;94.60;;;;;;5415802;26;20011;-60
2024/04/17 11:54:51;;;;;;;4.38;1.08;;;10.30;95.30;;;;;;5417301;26;20007;-60
2024/04/17 11:57:18;;;;;;;1.70;0.70;;;10.40;95.50;;;;;;5417348;26;20096;-60
2024/04/17 11:59:45;;;;;;;3.75;1.00;;;10.50;95.50;;;;;;5417206;26;20444;-60
2024/04/17 12:02:12;;;;;;;2.78;1.00;;;10.70;95.60;;;;;;5417175;26;20015;-60
2024/04/17 12:04:39;;;;;;;3.20;1.02;;;10.80;94.70;;;;;;5416957;26;20035;-60
2024/04/17 12:07:06;;;;;;;3.47;0.90;;;10.70;94.60;;;;;;5417177;26;20004;-60
2024/04/17 12:09:33;;;;;;;4.53;0.88;;;10.80;94.00;;;;;;5417068;26;20010;-60
2024/04/17 12:12:00;;;;;;;4.47;0.77;;;10.80;93.70;;;;;;5416922;26;20061;-60
2024/04/17 12:14:27;;;;;;;4.25;0.90;;;10.80;94.00;;;;;;5416994;26;20080;-59
2024/04/17 12:16:55;;;;;;;6.95;1.58;;;10.90;94.30;;;;;;5416485;26;20406;-59
2024/04/17 12:19:22;;;;;;;4.57;0.90;;;10.90;93.60;;;;;;5416538;26;20003;-60
2024/04/17 12:21:49;;;;;;;2.60;0.95;;;11.00;93.30;;;;;;5416630;26;20085;-61
2024/04/17 12:24:19;;;;;;;4.10;1.08;;;11.10;93.00;;;;;;5416849;26;20007;-61
2024/04/17 12:26:52;;;;;;;2.17;0.70;;;11.00;92.90;;;;;;5416841;26;20004;-61
2024/04/17 12:29:19;;;;;;;3.13;1.30;;;11.10;93.40;;;;;;5416581;26;20003;-61
2024/04/17 12:31:47;;;;;;;2.08;0.80;;;11.20;92.40;;;;;;5416376;26;20000;-61
2024/04/17 12:34:14;;;;;;;2.17;0.70;;;11.20;92.30;;;;;;5416275;26;20007;-61
2024/04/17 12:36:41;;;;;;;2.30;0.90;;;11.10;92.50;;;;;;5419464;26;20031;-61
2024/04/17 12:39:08;;;;;;;3.88;0.80;;;11.00;92.90;;;;;;5420085;26;20076;-61
2024/04/17 12:41:35;;;;;;;3.25;1.10;;;11.10;93.50;;;;;;5418402;26;20444;-61
2024/04/17 12:44:02;;;;;;;2.10;0.85;;;11.10;93.80;;;;;;5419936;26;20015;-61
2024/04/17 12:46:29;;;;;;;4.60;0.90;;;11.20;93.80;;;;;;5420031;26;20004;-61
2024/04/17 12:48:56;;;;;;;3.28;1.00;;;11.20;93.60;;;;;;5419904;26;20460;-61
2024/04/17 12:51:23;;;;;;;2.72;0.90;;;11.20;93.30;;;;;;5418124;26;20406;-61
2024/04/17 12:53:50;;;;;;;3.67;0.60;;;11.30;92.70;;;;;;5419914;26;20003;-61